createdAt,value
2023-01-09T19:44:40.049Z,1.10
2023-01-09T19:47:07.891Z,0.80
2023-01-09T19:49:37.937Z,1.40
2023-01-09T19:52:08.775Z,1.00
2023-01-09T19:54:38.016Z,1.10
2023-01-09T19:57:07.979Z,1.13
2023-01-09T19:59:39.916Z,1.10
2023-01-09T20:02:10.587Z,1.10
2023-01-09T20:04:44.231Z,1.47
2023-01-09T20:07:12.099Z,1.77
2023-01-09T20:09:45.519Z,1.80
2023-01-09T20:12:13.606Z,1.83
2023-01-09T20:14:41.613Z,2.30
2023-01-09T20:17:12.841Z,3.17
2023-01-09T20:19:40.746Z,2.40
2023-01-09T20:22:11.303Z,3.13
2023-01-09T20:24:39.583Z,2.53
2023-01-09T20:27:07.680Z,1.80
2023-01-09T20:29:38.046Z,3.00
2023-01-09T20:32:09.910Z,2.57
2023-01-09T20:34:44.264Z,1.90
2023-01-09T20:37:12.365Z,1.57
2023-01-09T20:39:45.459Z,2.40
2023-01-09T20:42:16.441Z,1.53
2023-01-09T20:44:45.856Z,2.40
2023-01-09T20:47:13.953Z,1.90
2023-01-09T20:49:43.483Z,2.00
2023-01-09T20:52:11.405Z,1.87
2023-01-09T20:54:44.113Z,1.90
2023-01-09T20:57:14.524Z,1.70
2023-01-09T20:59:45.258Z,1.70
2023-01-09T21:02:16.473Z,2.30
2023-01-09T21:04:45.961Z,2.50
2023-01-09T21:07:16.083Z,2.27
2023-01-09T21:09:44.470Z,1.63
2023-01-09T21:12:27.869Z,2.30
2023-01-09T21:15:02.029Z,1.60
2023-01-09T21:17:32.695Z,1.73
2023-01-09T21:20:02.165Z,1.50
2023-01-09T21:22:37.036Z,1.80
2023-01-09T21:25:06.034Z,1.97
2023-01-09T21:27:39.695Z,2.53
2023-01-09T21:30:09.550Z,1.70
2023-01-09T21:32:39.577Z,1.60
2023-01-09T21:35:10.431Z,2.17
2023-01-09T21:37:40.126Z,1.90
2023-01-09T21:40:12.932Z,1.70
2023-01-09T21:43:10.265Z,1.60
2023-01-09T21:45:56.664Z,2.67
2023-01-09T21:48:27.444Z,3.37
2023-01-09T21:51:07.032Z,4.17
2023-01-09T21:53:36.997Z,4.63
2023-01-09T21:56:05.346Z,2.60
2023-01-09T21:58:40.514Z,2.67
2023-01-09T22:01:08.346Z,2.27
2023-01-09T22:03:43.517Z,2.70
2023-01-09T22:06:13.067Z,2.20
2023-01-09T22:08:43.870Z,1.90
2023-01-09T22:11:14.768Z,2.77
2023-01-09T22:13:48.101Z,2.37
2023-01-09T22:16:20.197Z,2.20
2023-01-09T22:18:50.107Z,2.20
2023-01-09T22:21:19.696Z,1.97
2023-01-09T22:23:47.494Z,2.27
2023-01-09T22:26:16.906Z,1.53
2023-01-09T22:28:47.553Z,1.57
2023-01-09T22:31:18.007Z,1.50
2023-01-09T22:34:02.506Z,1.40
2023-01-09T22:36:42.307Z,1.40
2023-01-09T22:39:12.945Z,1.70
2023-01-09T22:41:40.942Z,1.37
2023-01-09T22:44:11.122Z,1.33
2023-01-09T22:46:39.222Z,1.70
2023-01-09T22:49:14.196Z,1.20
2023-01-09T22:51:45.609Z,1.10
2023-01-09T22:54:15.076Z,0.97
2023-01-09T22:56:44.041Z,1.00
2023-01-09T22:59:12.911Z,0.70
2023-01-09T23:01:40.794Z,1.30
2023-01-09T23:04:16.621Z,1.00
2023-01-09T23:06:45.889Z,1.10
2023-01-09T23:09:20.494Z,0.73
2023-01-09T23:12:13.403Z,0.63
2023-01-09T23:14:41.364Z,1.00
2023-01-09T23:17:13.383Z,0.67
2023-01-09T23:19:41.671Z,0.70
2023-01-09T23:22:11.039Z,0.90
2023-01-09T23:24:39.124Z,1.00
2023-01-09T23:27:07.730Z,1.17
2023-01-09T23:29:39.713Z,0.83
2023-01-09T23:32:09.475Z,1.40
2023-01-09T23:34:37.340Z,0.80
2023-01-09T23:37:09.692Z,1.00
2023-01-09T23:39:42.258Z,0.80
2023-01-09T23:42:37.357Z,1.00
2023-01-09T23:45:06.197Z,1.10
2023-01-09T23:47:34.693Z,1.40
2023-01-09T23:50:07.190Z,1.30
2023-01-09T23:52:34.924Z,1.20
2023-01-09T23:55:10.327Z,1.20
2023-01-09T23:57:39.260Z,1.13
